^^
Saratoga-Weather Station Historical Data
Daily Summary for February 24, 2020 Units:  English    Metric   Both
Daily Weekly Monthly Yearly Custom
  High: Low: Average:
Temperature: 67.6 °F 51.1 °F 59.9 °F
Dew Point: 59.4 °F 48.4 °F 54.1 °F
Humidity: 92% 57% 82%
Wind Speed: 13mph 0mph 2.4mph
Wind Gust: 16mph - -
Wind- - South
Pressure: 29.7 in 29.5 in -
Precipitation: 0.19 in    
Historical Graphs
 
 
Tabular Data for February 24, 2020
Time Temperature Dew Point Pressure Wind Wind Speed Wind Gust Humidity Rainfall Rate (Hourly) solar
00:03 64 °F 58.5 °F 29.6 in NE 2 mph 5 mph 82% 0.06 in 0 W/m2
00:08 63.9 °F 59 °F 29.6 in NNE 0.9 mph 2 mph 84% 0.06 in 0 W/m2
00:13 63.5 °F 58.8 °F 29.6 in Calm   5 mph 85% 0.06 in 0 W/m2
00:19 63.1 °F 58.8 °F 29.6 in Calm   3 mph 86% 0.06 in 0 W/m2
00:24 63 °F 59.4 °F 29.6 in Calm     88% 0.06 in 0 W/m2
00:29 62.6 °F 59 °F 29.6 in South 2 mph 3 mph 88% 0.06 in 0 W/m2
00:34 62.2 °F 59 °F 29.6 in SSE 2 mph 4 mph 89% 0.09 in 0 W/m2
00:39 62.1 °F 58.8 °F 29.6 in Calm   5 mph 89% 0.11 in 0 W/m2
00:44 62.1 °F 58.8 °F 29.6 in NNW 4 mph 4 mph 89% 0.11 in 0 W/m2
00:49 62.1 °F 58.8 °F 29.6 in NNW 0.9 mph 5 mph 89% 0.06 in 0 W/m2
00:54 62.1 °F 58.8 °F 29.6 in Calm   6 mph 89% 0.06 in 0 W/m2
00:59 62.1 °F 58.8 °F 29.6 in NNW 0.9 mph 2 mph 89% 0.06 in 0 W/m2
01:04 61.9 °F 58.6 °F 29.6 in Calm   6 mph 89% 0.06 in 0 W/m2
01:09 61.7 °F 58.5 °F 29.6 in Calm   3 mph 89% 0.06 in 0 W/m2
01:14 61.7 °F 58.8 °F 29.6 in NE 2 mph 5 mph 90% 0.06 in 0 W/m2
01:19 61.9 °F 59 °F 29.6 in NNW 0.9 mph 4 mph 90% 0.06 in 0 W/m2
01:24 62.1 °F 58.8 °F 29.6 in NE 2 mph 4 mph 89% 0.06 in 0 W/m2
01:29 62.1 °F 58.8 °F 29.6 in NE 0.9 mph 4 mph 89% 0.06 in 0 W/m2
01:34 62.2 °F 59 °F 29.6 in NW 0.9 mph 2 mph 89% 0.03 in 0 W/m2
01:39 62.1 °F 58.8 °F 29.6 in Calm   4 mph 89% 0.01 in 0 W/m2
01:44 62.1 °F 58.8 °F 29.6 in WNW 2.9 mph 4 mph 89% 0.01 in 0 W/m2
01:49 62.1 °F 59.2 °F 29.6 in WNW 4.9 mph 9 mph 90% 0.02 in 0 W/m2
01:54 62.1 °F 59.2 °F 29.6 in SE 0.9 mph 2 mph 90% 0.02 in 0 W/m2
01:59 62.1 °F 59.2 °F 29.6 in North 0.9 mph 9 mph 90% 0.02 in 0 W/m2
02:04 61.9 °F 59 °F 29.6 in NW 2 mph 6 mph 90% 0.02 in 0 W/m2
02:09 61.9 °F 59 °F 29.6 in NW 0.9 mph 2 mph 90% 0.02 in 0 W/m2
02:14 61.9 °F 59 °F 29.6 in WNW 0.9 mph 6 mph 90% 0.02 in 0 W/m2
02:19 61.9 °F 59.2 °F 29.6 in WNW 2 mph 4 mph 91% 0.02 in 0 W/m2
02:24 61.9 °F 59.2 °F 29.6 in WNW 2 mph 3 mph 91% 0.02 in 0 W/m2
02:29 61.9 °F 59.2 °F 29.6 in South 2 mph 3 mph 91% 0.02 in 0 W/m2
02:34 61.9 °F 59.2 °F 29.6 in Calm   2 mph 91% 0.02 in 0 W/m2
02:39 61.9 °F 59.2 °F 29.6 in NW 2 mph 4 mph 91% 0.02 in 0 W/m2
02:44 61.9 °F 59.2 °F 29.6 in Calm   2 mph 91% 0.02 in 0 W/m2
02:49 61.9 °F 59.2 °F 29.6 in SSW 2 mph 9 mph 91% 0.02 in 0 W/m2
02:54 61.7 °F 59 °F 29.6 in South 0.9 mph 7 mph 91% 0.02 in 0 W/m2
03:00 61.5 °F 58.8 °F 29.6 in NNW 0.9 mph 9 mph 91% 0.02 in 0 W/m2
03:05 61.5 °F 58.8 °F 29.6 in Calm   1 mph 91% 0.02 in 0 W/m2
03:10 61.5 °F 58.8 °F 29.6 in North 2 mph 3 mph 91% 0.01 in 0 W/m2
03:15 61.5 °F 58.8 °F 29.6 in WNW 0.9 mph 5 mph 91% 0.01 in 0 W/m2
03:20 61.5 °F 58.8 °F 29.6 in East 2 mph 3 mph 91% 0.01 in 0 W/m2
03:25 61.5 °F 58.8 °F 29.6 in WNW 0.9 mph 3 mph 91% 0.01 in 0 W/m2
03:30 61.5 °F 58.8 °F 29.6 in SW 0.9 mph 6 mph 91% 0 in 0 W/m2
03:35 61.5 °F 58.8 °F 29.6 in WNW 2 mph 8 mph 91% 0 in 0 W/m2
03:40 61.5 °F 58.8 °F 29.6 in NW 6 mph 9 mph 91% 0 in 0 W/m2
03:45 61.3 °F 58.6 °F 29.6 in WNW 2 mph 5 mph 91% 0 in 0 W/m2
03:50 61.3 °F 58.6 °F 29.6 in WSW 4.9 mph 7 mph 91% 0 in 0 W/m2
03:55 61.2 °F 58.5 °F 29.6 in WNW 4.9 mph 9 mph 91% 0 in 0 W/m2
04:00 61.2 °F 58.5 °F 29.6 in WNW 4 mph 9 mph 91% 0.01 in 0 W/m2
04:05 61.2 °F 58.5 °F 29.6 in ENE 2 mph 5 mph 91% 0.01 in 0 W/m2
04:10 61 °F 58.3 °F 29.6 in WNW 2 mph 6 mph 91% 0.01 in 0 W/m2
04:15 61 °F 58.3 °F 29.6 in Calm   6 mph 91% 0.01 in 0 W/m2
04:20 60.8 °F 58.1 °F 29.6 in NNW 2.9 mph 3 mph 91% 0.01 in 0 W/m2
04:25 60.8 °F 58.5 °F 29.6 in WNW 2 mph 5 mph 92% 0.01 in 0 W/m2
04:30 60.6 °F 57.9 °F 29.6 in WSW 0.9 mph 2 mph 91% 0.01 in 0 W/m2
04:35 60.6 °F 57.9 °F 29.6 in SW 6 mph 16 mph 91% 0.01 in 0 W/m2
04:40 60.3 °F 56.7 °F 29.6 in NW 4.9 mph 12 mph 88% 0.01 in 0 W/m2
04:45 60.1 °F 55.9 °F 29.6 in West 6 mph 16 mph 86% 0.01 in 0 W/m2
04:50 59.5 °F 54.3 °F 29.6 in WSW 6 mph 13 mph 83% 0.01 in 0 W/m2
04:55 59 °F 54.1 °F 29.6 in West 6.9 mph 8 mph 84% 0.01 in 0 W/m2
05:00 58.3 °F 53.4 °F 29.6 in West 4 mph 13 mph 84% 0 in 0 W/m2
05:05 57.7 °F 52.9 °F 29.6 in West 2 mph 7 mph 84% 0 in 0 W/m2
05:10 57.2 °F 52.3 °F 29.7 in West 6.9 mph 7 mph 84% 0 in 0 W/m2
05:15 56.7 °F 51.8 °F 29.7 in WSW 4.9 mph 6 mph 84% 0 in 0 W/m2
05:20 56.3 °F 51.4 °F 29.7 in West 2.9 mph 12 mph 84% 0 in 0 W/m2
05:25 55.9 °F 51.3 °F 29.7 in NW 4 mph 7 mph 84% 0 in 0 W/m2
05:30 55.6 °F 50.5 °F 29.7 in WNW 4.9 mph 9 mph 83% 0 in 0 W/m2
05:35 55.2 °F 50.2 °F 29.7 in WSW 2.9 mph 4 mph 83% 0 in 0 W/m2
05:41 55 °F 50 °F 29.7 in West 2 mph 9 mph 83% 0 in 0 W/m2
05:46 54.9 °F 50.4 °F 29.7 in West 2.9 mph 4 mph 85% 0 in 0 W/m2
05:51 54.7 °F 50.2 °F 29.7 in West 6 mph 6 mph 85% 0 in 0 W/m2
05:56 54.7 °F 50.5 °F 29.7 in West 2.9 mph 10 mph 86% 0 in 0 W/m2
06:01 54.7 °F 50.5 °F 29.7 in West 2.9 mph 10 mph 86% 0 in 0 W/m2
06:06 54.7 °F 50.2 °F 29.7 in WSW 2 mph 12 mph 85% 0 in 0 W/m2
06:11 54.5 °F 49.8 °F 29.7 in NW 8.9 mph 11 mph 84% 0 in 0 W/m2
06:16 54.3 °F 49.6 °F 29.7 in WSW 6.9 mph 10 mph 84% 0 in 0 W/m2
06:21 54.3 °F 49.8 °F 29.7 in WNW 4 mph 8 mph 85% 0 in 0 W/m2
06:26 54.1 °F 49.8 °F 29.7 in WSW 4.9 mph 9 mph 85% 0 in 0 W/m2
06:31 54 °F 49.6 °F 29.7 in West 0.9 mph 3 mph 85% 0 in 0 W/m2
06:36 53.8 °F 49.6 °F 29.7 in Calm   3 mph 86% 0 in 0 W/m2
06:41 53.4 °F 49.6 °F 29.7 in Calm   3 mph 87% 0 in 0 W/m2
06:46 53.2 °F 49.5 °F 29.7 in Calm   4 mph 87% 0 in 0 W/m2
06:51 53.2 °F 49.5 °F 29.7 in Calm   1 mph 87% 0 in 0 W/m2
06:56 53.1 °F 49.6 °F 29.7 in WNW 2 mph 3 mph 88% 0 in 0 W/m2
07:01 52.9 °F 49.5 °F 29.7 in NNW 2 mph 3 mph 88% 0 in 0 W/m2
07:06 52.7 °F 49.3 °F 29.7 in West 2 mph 5 mph 88% 0 in 0 W/m2
07:11 52.5 °F 49.1 °F 29.7 in NW 2 mph 2 mph 88% 0 in 0 W/m2
07:16 52.5 °F 49.1 °F 29.7 in Calm   5 mph 88% 0 in 0 W/m2
07:21 52.5 °F 49.5 °F 29.7 in NNE 0.9 mph 3 mph 89% 0 in 0 W/m2
07:26 52.3 °F 49.3 °F 29.7 in Calm   2 mph 89% 0 in 0 W/m2
07:31 52.2 °F 49.1 °F 29.7 in Calm   2 mph 89% 0 in 5 W/m2
07:36 52 °F 48.9 °F 29.7 in SE 0.9 mph 2 mph 89% 0 in 7 W/m2
07:41 51.6 °F 48.7 °F 29.7 in SE 0.9 mph 1 mph 90% 0 in 9 W/m2
07:46 51.4 °F 48.6 °F 29.7 in Calm   1 mph 90% 0 in 12 W/m2
07:51 51.3 °F 48.4 °F 29.7 in East 2 mph 4 mph 90% 0 in 16 W/m2
07:56 51.3 °F 48.7 °F 29.7 in East 0.9 mph 3 mph 91% 0 in 18 W/m2
08:01 51.3 °F 48.7 °F 29.7 in East 0.9 mph 2 mph 91% 0 in 21 W/m2
08:06 51.3 °F 48.7 °F 29.7 in East 0.9 mph 3 mph 91% 0 in 25 W/m2
08:11 51.1 °F 48.6 °F 29.7 in ENE 2 mph 2 mph 91% 0 in 26 W/m2
08:16 51.1 °F 48.6 °F 29.7 in Calm   1 mph 91% 0 in 28 W/m2
08:21 51.1 °F 48.6 °F 29.7 in East 0.9 mph 1 mph 91% 0 in 32 W/m2
08:26 51.3 °F 49.1 °F 29.7 in Calm     92% 0 in 33 W/m2
08:31 51.3 °F 49.1 °F 29.7 in NE 2 mph 2 mph 92% 0 in 35 W/m2
08:36 51.3 °F 49.1 °F 29.7 in Calm   1 mph 92% 0 in 37 W/m2
08:41 51.4 °F 49.3 °F 29.7 in SE 2 mph 2 mph 92% 0 in 39 W/m2
08:46 51.6 °F 49.5 °F 29.7 in Calm   3 mph 92% 0 in 40 W/m2
08:51 51.8 °F 49.3 °F 29.7 in Calm     91% 0 in 42 W/m2
08:56 52 °F 49.5 °F 29.7 in ESE 0.9 mph 1 mph 91% 0 in 44 W/m2
09:01 52.2 °F 49.3 °F 29.7 in North 2 mph 2 mph 90% 0 in 46 W/m2
09:06 52.5 °F 49.6 °F 29.7 in NNW 0.9 mph 2 mph 90% 0 in 111 W/m2
09:11 52.9 °F 49.6 °F 29.7 in ESE 0.9 mph 7 mph 89% 0 in 186 W/m2
09:16 53.2 °F 50 °F 29.7 in NW 2.9 mph 3 mph 89% 0 in 230 W/m2
09:21 53.4 °F 50 °F 29.7 in Calm   7 mph 88% 0 in 172 W/m2
09:26 54 °F 50.2 °F 29.7 in NW 2.9 mph 3 mph 87% 0 in 251 W/m2
09:31 54.3 °F 50.5 °F 29.7 in Calm   1 mph 87% 0 in 264 W/m2
09:36 54.7 °F 50.5 °F 29.7 in West 2 mph 4 mph 86% 0 in 278 W/m2
09:41 55 °F 50.5 °F 29.7 in Calm   2 mph 85% 0 in 323 W/m2
09:46 55.4 °F 50.7 °F 29.7 in NNW 4 mph 6 mph 84% 0 in 301 W/m2
09:51 55.8 °F 51.1 °F 29.7 in NW 4 mph 4 mph 84% 0 in 309 W/m2
09:56 55.9 °F 50.9 °F 29.7 in Calm   4 mph 83% 0 in 330 W/m2
10:01 56.3 °F 50.9 °F 29.7 in East 6.9 mph 9 mph 82% 0 in 316 W/m2
10:06 56.5 °F 51.1 °F 29.7 in SE 2.9 mph 4 mph 82% 0 in 285 W/m2
10:11 56.7 °F 51.3 °F 29.7 in NE 9 mph 9 mph 82% 0 in 227 W/m2
10:16 56.7 °F 51.3 °F 29.7 in Calm     82% 0 in 197 W/m2
10:21 56.8 °F 51.4 °F 29.7 in WSW 0.9 mph 2 mph 82% 0 in 206 W/m2
10:26 57.2 °F 51.8 °F 29.7 in North 0.9 mph 2 mph 82% 0 in 151 W/m2
10:31 57.6 °F 52.2 °F 29.7 in North 0.9 mph 2 mph 82% 0 in 533 W/m2
10:36 57.7 °F 51.6 °F 29.7 in East 4 mph 4 mph 80% 0 in 492 W/m2
10:41 58.3 °F 51.8 °F 29.7 in West 4 mph 7 mph 79% 0 in 156 W/m2
10:46 58.1 °F 51.3 °F 29.7 in NW 4 mph 6 mph 78% 0 in 483 W/m2
10:51 58.3 °F 51.8 °F 29.7 in ENE 2 mph 4 mph 79% 0 in 445 W/m2
10:56 58.5 °F 51.6 °F 29.7 in ESE 4 mph 8 mph 78% 0 in 476 W/m2
11:01 58.8 °F 52 °F 29.7 in NE 2.9 mph 4 mph 78% 0 in 497 W/m2
11:06 59.2 °F 52 °F 29.7 in ENE 2.9 mph 8 mph 77% 0 in 533 W/m2
11:11 59.5 °F 52 °F 29.7 in WNW 2.9 mph 4 mph 76% 0 in 592 W/m2
11:16 59.9 °F 52.3 °F 29.7 in NNE 2 mph 3 mph 76% 0 in 621 W/m2
11:22 60.6 °F 53.1 °F 29.7 in North 0.9 mph 3 mph 76% 0 in 673 W/m2
11:27 61.2 °F 52.5 °F 29.7 in NNW 2 mph 6 mph 73% 0 in 675 W/m2
11:32 61.2 °F 52.9 °F 29.7 in NNW 2.9 mph 7 mph 74% 0 in 687 W/m2
11:37 61 °F 52.3 °F 29.7 in West 2.9 mph 7 mph 73% 0 in 239 W/m2
11:42 61.2 °F 52 °F 29.7 in WNW 6 mph 9 mph 72% 0 in 756 W/m2
11:47 60.8 °F 52.2 °F 29.7 in Calm   5 mph 73% 0 in 594 W/m2
11:52 61.3 °F 52.7 °F 29.7 in WNW 2.9 mph 4 mph 73% 0 in 216 W/m2
11:57 61.9 °F 52.7 °F 29.7 in East 2 mph 11 mph 72% 0 in 202 W/m2
12:02 61.9 °F 52.3 °F 29.7 in East 2 mph 4 mph 71% 0 in 236 W/m2
12:07 62.1 °F 52.5 °F 29.7 in East 2 mph 9 mph 71% 0 in 236 W/m2
12:12 62.4 °F 52.5 °F 29.7 in WNW 6 mph 7 mph 70% 0 in 745 W/m2
12:17 63.1 °F 53.2 °F 29.7 in NNW 6 mph 6 mph 70% 0 in 752 W/m2
12:22 63.3 °F 53.1 °F 29.7 in NE 4 mph 4 mph 69% 0 in 738 W/m2
12:27 63.3 °F 53.1 °F 29.7 in NE 2.9 mph 8 mph 69% 0 in 297 W/m2
12:32 63.5 °F 52.7 °F 29.7 in WSW 13 mph 13 mph 68% 0 in 708 W/m2
12:37 63.5 °F 52.7 °F 29.7 in West 2.9 mph 8 mph 68% 0 in 638 W/m2
12:42 63.5 °F 52.3 °F 29.7 in West 8.1 mph 13 mph 67% 0 in 515 W/m2
12:47 63.1 °F 52.3 °F 29.7 in West 2 mph 2 mph 68% 0 in 715 W/m2
12:52 63.1 °F 53.2 °F 29.7 in WNW 4.9 mph 13 mph 70% 0 in 229 W/m2
12:57 63.3 °F 53.1 °F 29.7 in ENE 0.9 mph 5 mph 69% 0 in 666 W/m2
13:02 64 °F 52.9 °F 29.7 in North 4 mph 13 mph 67% 0 in 701 W/m2
13:07 64.6 °F 52.9 °F 29.7 in East 6.9 mph 7 mph 66% 0 in 756 W/m2
13:12 65.1 °F 53.1 °F 29.7 in Calm   13 mph 65% 0 in 612 W/m2
13:17 64.6 °F 52.2 °F 29.7 in NNE 0.9 mph 7 mph 64% 0 in 652 W/m2
13:22 64.4 °F 52.9 °F 29.7 in WNW 2 mph 3 mph 66% 0 in 399 W/m2
13:27 64.8 °F 52.7 °F 29.7 in WSW 2 mph 6 mph 65% 0 in 436 W/m2
13:32 64.8 °F 52.7 °F 29.7 in NE 0.9 mph 2 mph 65% 0 in 211 W/m2
13:37 64.6 °F 51.6 °F 29.7 in NW 4 mph 8 mph 63% 0 in 185 W/m2
13:42 64.8 °F 51.8 °F 29.7 in NW 4 mph 10 mph 63% 0 in 445 W/m2
13:47 64.9 °F 51.6 °F 29.7 in West 6.9 mph 8 mph 62% 0 in 244 W/m2
13:52 65.1 °F 52.2 °F 29.7 in North 4 mph 10 mph 63% 0 in 283 W/m2
13:57 65.5 °F 51.6 °F 29.7 in NW 2.9 mph 8 mph 61% 0 in 503 W/m2
14:02 65.5 °F 52.2 °F 29.7 in WNW 8.1 mph 13 mph 62% 0 in 302 W/m2
14:07 65.7 °F 52.3 °F 29.7 in SW 0.9 mph 3 mph 62% 0 in 244 W/m2
14:12 65.7 °F 51.8 °F 29.7 in West 6 mph 13 mph 61% 0 in 251 W/m2
14:17 65.7 °F 52.7 °F 29.7 in NW 4 mph 8 mph 63% 0 in 294 W/m2
14:22 65.8 °F 52.5 °F 29.7 in West 9 mph 9 mph 62% 0 in 360 W/m2
14:27 66 °F 52.7 °F 29.6 in ESE 2.9 mph 7 mph 62% 0 in 237 W/m2
14:32 66 °F 52.7 °F 29.6 in NW 0.9 mph 6 mph 62% 0 in 185 W/m2
14:37 66 °F 52.2 °F 29.6 in WNW 2.9 mph 4 mph 61% 0 in 260 W/m2
14:42 66.4 °F 52.5 °F 29.6 in WNW 0.9 mph 6 mph 61% 0 in 244 W/m2
14:47 66.7 °F 53.2 °F 29.6 in WSW 4 mph 5 mph 62% 0 in 176 W/m2
14:52 66.7 °F 51.4 °F 29.6 in WNW 4 mph 8 mph 58% 0 in 116 W/m2
14:57 66.7 °F 52.3 °F 29.6 in Calm   3 mph 60% 0 in 199 W/m2
15:02 66.7 °F 51.4 °F 29.6 in NNW 2.9 mph 8 mph 58% 0 in 220 W/m2
15:07 66.7 °F 51.4 °F 29.6 in ENE 4 mph 4 mph 58% 0 in 315 W/m2
15:12 66.9 °F 52.2 °F 29.6 in West 2.9 mph 5 mph 59% 0 in 202 W/m2
15:17 66.9 °F 51.3 °F 29.6 in SW 0.9 mph 5 mph 57% 0 in 255 W/m2
15:27 67.1 °F 51.8 °F 29.6 in NW 0.9 mph 4 mph 58% 0 in 202 W/m2
15:32 67.3 °F 51.4 °F 29.6 in Calm   2 mph 57% 0 in 260 W/m2
15:37 67.5 °F 51.6 °F 29.6 in WNW 2 mph 6 mph 57% 0 in 302 W/m2
15:42 67.6 °F 51.8 °F 29.6 in WNW 2 mph 2 mph 57% 0 in 167 W/m2
15:47 67.6 °F 51.8 °F 29.6 in North 2.9 mph 3 mph 57% 0 in 373 W/m2
15:52 67.5 °F 51.6 °F 29.6 in WSW 6.9 mph 8 mph 57% 0 in 139 W/m2
15:57 67.5 °F 52.2 °F 29.6 in East 0.9 mph 1 mph 58% 0 in 120 W/m2
16:02 67.3 °F 52 °F 29.6 in Calm   4 mph 58% 0 in 165 W/m2
16:07 67.1 °F 51.8 °F 29.6 in NW 0.9 mph 3 mph 58% 0 in 105 W/m2
16:12 66.9 °F 52.2 °F 29.6 in Calm   3 mph 59% 0 in 79 W/m2
16:17 66.9 °F 52.5 °F 29.6 in NNW 0.9 mph 2 mph 60% 0 in 107 W/m2
16:22 66.7 °F 52.9 °F 29.6 in East 6.9 mph 12 mph 61% 0 in 148 W/m2
16:27 66.2 °F 53.2 °F 29.6 in ENE 4 mph 10 mph 63% 0 in 181 W/m2
16:32 66 °F 53.1 °F 29.6 in ESE 4 mph 12 mph 63% 0 in 213 W/m2
16:37 66 °F 53.4 °F 29.6 in SSE 0.9 mph 7 mph 64% 0 in 186 W/m2
16:47 66 °F 54.3 °F 29.6 in ESE 2 mph 12 mph 66% 0 in 197 W/m2
16:52 65.8 °F 55 °F 29.6 in East 4 mph 8 mph 68% 0 in 125 W/m2
16:57 65.3 °F 54.9 °F 29.6 in SE 2 mph 11 mph 69% 0 in 88 W/m2
17:02 64.9 °F 54.5 °F 29.6 in East 4 mph 10 mph 69% 0 in 47 W/m2
17:07 64.4 °F 54.3 °F 29.6 in ESE 6 mph 11 mph 70% 0 in 23 W/m2
17:12 63.9 °F 55 °F 29.6 in ESE 2.9 mph 11 mph 73% 0 in 16 W/m2
17:17 63.1 °F 55 °F 29.6 in ENE 2 mph 7 mph 75% 0 in 18 W/m2
17:22 62.8 °F 55 °F 29.6 in NE 4 mph 11 mph 76% 0 in 25 W/m2
17:27 62.4 °F 55.4 °F 29.6 in ENE 2 mph 6 mph 78% 0 in 54 W/m2
17:32 62.2 °F 55.2 °F 29.6 in ESE 2.9 mph 6 mph 78% 0 in 56 W/m2
17:37 62.1 °F 55.4 °F 29.6 in SE 2 mph 6 mph 79% 0 in 54 W/m2
17:42 61.9 °F 55.6 °F 29.6 in NE 2.9 mph 5 mph 80% 0 in 54 W/m2
17:47 61.9 °F 55.6 °F 29.6 in NNE 0.9 mph 3 mph 80% 0 in 46 W/m2
17:52 61.7 °F 55.4 °F 29.6 in ESE 6 mph 8 mph 80% 0 in 33 W/m2
17:57 61.5 °F 55.6 °F 29.6 in East 2.9 mph 7 mph 81% 0 in 28 W/m2
18:02 61.5 °F 55.6 °F 29.6 in Calm   3 mph 81% 0 in 21 W/m2
18:07 61.3 °F 55.8 °F 29.6 in East 0.9 mph 8 mph 82% 0 in 18 W/m2
18:12 61.2 °F 55.6 °F 29.5 in ENE 2 mph 9 mph 82% 0 in 23 W/m2
18:17 61.2 °F 55.9 °F 29.5 in ENE 4 mph 11 mph 83% 0 in 30 W/m2
18:22 61 °F 55.8 °F 29.5 in East 2 mph 3 mph 83% 0 in 37 W/m2
18:27 61 °F 55.8 °F 29.5 in NE 2.9 mph 11 mph 83% 0 in 39 W/m2
18:32 60.8 °F 55.9 °F 29.5 in ENE 4.9 mph 7 mph 84% 0 in 39 W/m2
18:37 60.6 °F 55.8 °F 29.5 in ENE 2.9 mph 9 mph 84% 0 in 33 W/m2
18:42 60.6 °F 55.8 °F 29.5 in NE 4 mph 4 mph 84% 0 in 35 W/m2
18:47 60.6 °F 56.1 °F 29.5 in NE 4 mph 10 mph 85% 0 in 39 W/m2
18:52 60.4 °F 55.9 °F 29.5 in East 4 mph 8 mph 85% 0 in 39 W/m2
18:57 60.4 °F 56.3 °F 29.5 in ENE 2.9 mph 8 mph 86% 0 in 32 W/m2
19:02 60.3 °F 56.1 °F 29.5 in East 8.1 mph 14 mph 86% 0 in 25 W/m2
19:07 60.3 °F 56.3 °F 29.5 in ENE 2.9 mph 9 mph 87% 0 in 18 W/m2
19:12 60.3 °F 56.3 °F 29.5 in East 6.9 mph 12 mph 87% 0 in 12 W/m2
19:17 60.3 °F 56.3 °F 29.5 in East 0.9 mph 4 mph 87% 0 in 9 W/m2
19:22 60.1 °F 56.1 °F 29.5 in ESE 6.9 mph 7 mph 87% 0 in 5 W/m2
19:27 60.1 °F 56.5 °F 29.5 in ESE 2 mph 5 mph 88% 0 in 0 W/m2
19:32 60.1 °F 56.5 °F 29.5 in NE 4.9 mph 7 mph 88% 0 in 0 W/m2
19:37 59.9 °F 56.3 °F 29.5 in ENE 2 mph 3 mph 88% 0 in 0 W/m2
19:42 59.9 °F 56.3 °F 29.5 in ESE 2.9 mph 4 mph 88% 0 in 0 W/m2
19:47 59.9 °F 56.3 °F 29.5 in East 0.9 mph 5 mph 88% 0 in 0 W/m2
19:52 59.9 °F 56.3 °F 29.5 in Calm   1 mph 88% 0 in 0 W/m2
19:57 59.7 °F 56.5 °F 29.5 in ENE 2.9 mph 5 mph 89% 0 in 0 W/m2
20:02 59.7 °F 56.5 °F 29.5 in Calm   2 mph 89% 0 in 0 W/m2
20:07 59.5 °F 56.3 °F 29.5 in ENE 2.9 mph 4 mph 89% 0 in 0 W/m2
20:12 59.5 °F 56.3 °F 29.5 in Calm   2 mph 89% 0 in 0 W/m2
20:17 59.4 °F 56.1 °F 29.5 in Calm   1 mph 89% 0 in 0 W/m2
20:22 59.4 °F 56.5 °F 29.5 in Calm   2 mph 90% 0 in 0 W/m2
20:27 59.4 °F 56.5 °F 29.5 in NE 2 mph 2 mph 90% 0 in 0 W/m2
20:32 59.4 °F 56.5 °F 29.5 in NE 0.9 mph 5 mph 90% 0 in 0 W/m2
20:37 59.4 °F 56.5 °F 29.5 in Calm   2 mph 90% 0 in 0 W/m2
20:42 59.4 °F 56.5 °F 29.5 in NE 2 mph 2 mph 90% 0 in 0 W/m2
20:47 59.5 °F 56.7 °F 29.5 in NE 0.9 mph 1 mph 90% 0 in 0 W/m2
20:52 59.4 °F 56.5 °F 29.5 in Calm   3 mph 90% 0 in 0 W/m2
20:57 59.5 °F 56.7 °F 29.5 in NNE 0.9 mph 2 mph 90% 0 in 0 W/m2
21:02 59.5 °F 56.7 °F 29.5 in Calm   2 mph 90% 0 in 0 W/m2
21:07 59.5 °F 56.3 °F 29.5 in NE 0.9 mph 1 mph 89% 0 in 0 W/m2
21:12 59.5 °F 56.3 °F 29.5 in East 2.9 mph 3 mph 89% 0 in 0 W/m2
21:17 59.7 °F 56.5 °F 29.5 in North 2 mph 6 mph 89% 0 in 0 W/m2
21:22 59.7 °F 56.5 °F 29.5 in NNE 2 mph 3 mph 89% 0 in 0 W/m2
21:27 59.9 °F 56.7 °F 29.5 in ENE 2.9 mph 5 mph 89% 0 in 0 W/m2
21:32 59.9 °F 56.7 °F 29.5 in NNE 0.9 mph 3 mph 89% 0 in 0 W/m2
21:38 59.9 °F 56.7 °F 29.5 in ENE 2 mph 9 mph 89% 0.02 in 0 W/m2
21:43 59.7 °F 56.5 °F 29.5 in Calm   2 mph 89% 0.03 in 0 W/m2
21:48 59.5 °F 56.7 °F 29.5 in NW 4 mph 7 mph 90% 0.05 in 0 W/m2
21:53 59.5 °F 56.7 °F 29.5 in WNW 2 mph 3 mph 90% 0.08 in 0 W/m2
21:58 59.4 °F 56.7 °F 29.5 in ENE 2 mph 6 mph 91% 0.09 in 0 W/m2
22:03 59.2 °F 56.5 °F 29.5 in ENE 2 mph 3 mph 91% 0.09 in 0 W/m2
22:08 59 °F 56.3 °F 29.5 in ENE 2 mph 3 mph 91% 0.09 in 0 W/m2
22:13 58.8 °F 56.5 °F 29.5 in Calm   2 mph 92% 0.09 in 0 W/m2
22:18 58.8 °F 56.5 °F 29.5 in ENE 0.9 mph 3 mph 92% 0.09 in 0 W/m2
22:23 58.6 °F 56.3 °F 29.5 in NNE 2 mph 6 mph 92% 0.09 in 0 W/m2
22:28 58.6 °F 56.3 °F 29.5 in NNW 2.9 mph 5 mph 92% 0.09 in 0 W/m2
22:33 58.6 °F 55.9 °F 29.5 in NNW 0.9 mph 6 mph 91% 0.09 in 0 W/m2
22:38 58.6 °F 55.9 °F 29.5 in NNE 0.9 mph 3 mph 91% 0.08 in 0 W/m2
22:43 58.6 °F 55.9 °F 29.5 in NE 2 mph 3 mph 91% 0.06 in 0 W/m2
22:48 58.5 °F 55.8 °F 29.5 in Calm   4 mph 91% 0.05 in 0 W/m2
22:53 58.5 °F 55.8 °F 29.5 in ENE 2 mph 3 mph 91% 0.02 in 0 W/m2
22:58 58.5 °F 55.8 °F 29.5 in NNE 0.9 mph 4 mph 91% 0.01 in 0 W/m2
23:03 58.5 °F 55.8 °F 29.5 in ENE 2 mph 7 mph 91% 0 in 0 W/m2
23:08 58.3 °F 55.6 °F 29.5 in ENE 2.9 mph 4 mph 91% 0 in 0 W/m2
23:13 58.3 °F 55.6 °F 29.5 in NE 0.9 mph 7 mph 91% 0 in 0 W/m2
23:18 58.3 °F 55.6 °F 29.5 in NNE 0.9 mph 3 mph 91% 0 in 0 W/m2
23:23 58.3 °F 55.6 °F 29.5 in ENE 2.9 mph 5 mph 91% 0 in 0 W/m2
23:28 58.3 °F 55.4 °F 29.5 in ENE 0.9 mph 4 mph 90% 0 in 0 W/m2
23:33 57.9 °F 55 °F 29.5 in ENE 4 mph 8 mph 90% 0 in 0 W/m2
23:38 57.9 °F 55 °F 29.5 in North 2 mph 4 mph 90% 0 in 0 W/m2
23:43 57.9 °F 55 °F 29.5 in NE 2.9 mph 5 mph 90% 0 in 0 W/m2
23:48 57.7 °F 54.9 °F 29.5 in NE 0.9 mph 1 mph 90% 0 in 0 W/m2
23:53 57.7 °F 54.9 °F 29.5 in West 2 mph 2 mph 90% 0 in 0 W/m2
23:58 57.6 °F 54.7 °F 29.5 in SSE 0.9 mph 2 mph 90% 0 in 0 W/m2
Juneau County Weather
Compliments of Weather Underground - 4 mb